Terminal Aerodrome Forecast
Issued by NWS

Home | Current Version | Previous Version | Text Only | Print | Product List | Glossary On
Versions: 1 2 3 4 5 6 7 8 9 10 11 12
000
FTUS46 KPDT 161720
TAFPSC
TAF
KPSC 161720Z 1618/1718 24006KT P6SM SKC
     FM162200 24010G16KT P6SM SKC
     FM170700 VRB05KT P6SM SKC=

USA.gov is the U.S. government's official web portal to all federal, state and local government web resources and services.